KSMN

Lemhi County Airport

Salmon, Idaho, USA
KSMN 190520Z 1906/2006 34005KT P6SM BKN110 FM192100 01007KT P6SM VCSH BKN080
Issued Valid From Valid To
Apr-19 @ 05:20 UTC
(4 hours ago)
Apr-19 @ 06:00 UTC
(4 hours ago)
Apr-20 @ 06:00 UTC
(in 20 hours)
Apr-19 @ 06:00 to Apr-19 @ 21:00
KSMN 190520Z 1906/2006 34005KT P6SM BKN110
Wind Visibility Clouds
340° at 5 knots Greater than 6 miles
  • Broken at 11,000' AGL
From Apr-19 @ 21:00 to Apr-20 @ 06:00
FM192100 01007KT P6SM VCSH BKN080
Wind Visibility Clouds
10° at 7 knots Greater than 6 miles
  • Broken at 8,000' AGL
KSMN 190520Z 1906/2006 34005KT P6SM BKN110 FM192100 01007KT P6SM VCSH BKN080
Issued Apr-19 @ 05:20 UTC
(4 hours ago)
Valid From Apr-19 @ 06:00 UTC
(4 hours ago)
Valid To Apr-20 @ 06:00 UTC
(in 20 hours)
Apr-19 @ 06:00 - Apr-19 @ 21:00
Wind Visibility
340° at 5 knots Greater than 6 miles
Clouds
  • Broken at 11,000' AGL
From Apr-19 @ 21:00 - Apr-20 @ 06:00
Wind Visibility
10° at 7 knots Greater than 6 miles
Clouds
  • Broken at 8,000' AGL